Decoded Metar for PATL (TATALINA in AK, USA) (IATA:TLJ) | Meteo·Mobile Aviation Weather
aviador You're here:

PATL Decoded Metar

TATALINA in AK, USA
Report Time2018-11-20 17:55:00
UTC Time2018-11-20 18:31:44
Flight Rules vfr VFR
WindCalm
Visibility9999 m
Phenomena:N/A
Clouds:Broken 110 Hf
Broken 150 Hf
Ceiling11,000 ft
Temp-7°C (ISA -20)
Dew Point-7°C (100% RH)
AAT-9.8°C
QNH999 hPa
Density Alt-988 ft
Elevation965 ft
Report Wrong Elevation
Raw Report
PATL 201755Z AUTO 00000KT 10SM BKN110 BKN150 M07/M07 A2949=

Extra information for PATL:More info

Metar Taf Metar & Taf Last 4 Metars F.Rules Stats Wind Profile Meteogram Temp Stats Airport Information Weather charts Add Link Nearby VenuesMetar ALERT Operation Metar Decoded Social comments

AIRNAV info for PATL